AirNav   Pilot Hours Calculator
 
 1343 users online  

4M1 Carroll County Airport
Berryville, Arkansas, USA

GOING TO BERRYVILLE?


FAA INFORMATION EFFECTIVE 25 FEBRUARY 2021

Location

FAA Identifier: 4M1
Lat/Long: 36-22-52.8000N 093-37-28.4000W
36-22.880000N 093-37.473333W
36.3813333,-93.6245556
(estimated)
Elevation: 1205.5 ft. / 367.4 m (surveyed)
Variation: 02E (2010)
From city: 3 miles W of BERRYVILLE, AR
Time zone: UTC -6 (UTC -5 during Daylight Saving Time)
Zip code: 72616

Airport Operations

Airport use: Open to the public
Activation date: 05/1966
Control tower: no
ARTCC: MEMPHIS CENTER
FSS: JONESBORO FLIGHT SERVICE STATION
NOTAMs facility: JBR (NOTAM-D service available)
Attendance: WED - SUN 0800-1700
Wind indicator: lighted
Segmented circle: yes
Lights: ACTVT REIL RWY 07 & 25; PAPI RWY 07 & 25, MIRL RWY 07/25; TWY LGTS - CTAF.
Beacon: white-green (lighted land airport)
Operates sunset to sunrise.

Airport Communications

CTAF: 122.9
RAZORBACK APPROACH: 126.6
RAZORBACK DEPARTURE: 126.6
  • APCH/DEP SVC PRVDD BY MEMPHIS ARTCC ON FREQS 126.1/269.0 (FAYETTEVILLE RCAG) WHEN RAZORBACK APCH CTL CLSD.

Nearby radio navigation aids

VOR radial/distance  VOR name  Freq  Var
HROr277/20.2HARRISON VOR/DME112.5004E
RZCr067/25.3RAZORBACK VORTAC116.4004E

Airport Services

Fuel available: 100LL
FUEL AVBL 24 HR SELF SERVE WITH CREDIT CARD.
Parking: hangars and tiedowns
Airframe service: MAJOR
Powerplant service: MAJOR
Bottled oxygen: NONE
Bulk oxygen: NONE

Runway Information

Runway 7/25

Dimensions: 3554 x 75 ft. / 1083 x 23 m
Surface: asphalt, in good condition
Weight bearing capacity: 
Single wheel: 12.0
Runway edge lights: medium intensity
RUNWAY 7  RUNWAY 25
Latitude: 36-22.797025N36-22.964125N
Longitude: 093-37.819565W093-37.125405W
Elevation: 1166.6 ft.1204.9 ft.
Traffic pattern: leftleft
Runway heading: 071 magnetic, 073 true251 magnetic, 253 true
Markings: nonprecision, in good conditionnonprecision, in good condition
Visual slope indicator: 2-light PAPI on left (3.00 degrees glide path)2-light PAPI on left (3.00 degrees glide path)
Runway end identifier lights: yesyes
Touchdown point: yes, no lightsyes, no lights
Obstructions: 11 ft. trees, 300 ft. from runway, 215 ft. left of centerline, 9:1 slope to clear23 ft. trees, 600 ft. from runway, 135 ft. left of centerline, 17:1 slope to clear

Airport Ownership and Management from official FAA records

Ownership: Publicly-owned
Owner: CARROLL COUNTY
210 WEST CHURCH ST.
BERRYVILLE, AR 72616
Phone 870-423-2967
Manager: MICHAEL PFEIFER
518 COUNTY ROAD 308
BERRYVILLE, AR 72616
Phone 870-423-8393

Airport Operational Statistics

Aircraft based on the field: 34
Single engine airplanes: 32
Multi engine airplanes: 2
    
Aircraft operations: avg 98/week *
59% transient general aviation
39% local general aviation
2% military
* for 12-month period ending 30 June 2020

Additional Remarks

NO LINE OF SIGHT BTN RY ENDS.
ULTRALIGHT ACTIVITY ON & INVOF ARPT.
DEER ON & INVOF ARPT.
FOR CD CTC RAZORBACK APCH 479-649-2416, WHEN APCH CLSD CTC MEMPHIS ARTCC AT 901-368-8453.

Instrument Procedures

NOTE: All procedures below are presented as PDF files. If you need a reader for these files, you should download the free Adobe Reader.

NOT FOR NAVIGATION. Please procure official charts for flight.
FAA instrument procedures published for use from 25 February 2021 at 0901Z to 25 March 2021 at 0900Z.

 
IAPs - Instrument Approach Procedures
RNAV (GPS) RWY 07   download (253KB)
RNAV (GPS) RWY 25   download (293KB)
NOTE: Special Take-Off Minimums/Departure Procedures apply   download (131KB)

Other nearby airports with instrument procedures:

H34 - Huntsville Municipal Airport (19 nm S)
KFWB - Branson West Municipal Airport - Emerson Field (22 nm NE)
KBBG - Branson Airport (22 nm NE)
94K - Cassville Municipal Airport (23 nm NW)
KROG - Rogers Executive Airport - Carter Field (23 nm W)
 
Loc | Ops | Rwys | IFR | FBO | Links
Com | Nav | Svcs | Stats | Notes

Branson Jet Center
AirBoss

 
Area around 4M1 (Carroll County Airport)
 
Road maps at: MapQuest Bing Google
 
Aerial photo
WARNING: Photo may not be current or correct
Aerial photo of 4M1 (Carroll County Airport)
Photo courtesy of the Arkansas Department of Aeronautics
Taken in the Spring of 2007

Do you have a better or more recent aerial photo of Carroll County Airport that you would like to share? If so, please send us your photo.

 
Sectional chart

 
Airport distance calculator
Flying to Carroll County Airport? Find the distance to fly.

From to 4M1

Sunrise and sunset
Times for 26-Feb-2021
 Local
(UTC-6)
 Zulu
(UTC)
Morning civil twilight06:2412:24
Sunrise06:5012:50
Sunset18:0500:05
Evening civil twilight18:3100:31

Current date and time
Zulu (UTC)  26-Feb-2021 20:35:11
Local (UTC-6)  26-Feb-2021 14:35:11
 
METAR
KFWB 
22nm NE 
262015Z AUTO VRB05KT 10SM OVC007 07/07 A2988 RMK AO2
KROG 
22nm W 
261958Z 14004KT 10SM OVC005 08/07 A2988 RMK AO2 RAE15 SLP118 P0000 T00780067
KBBG 
22nm NE 
261945Z 10006KT 7SM OVC004 05/05 A2990
KHRO 
24nm E 
261953Z AUTO 14008KT 5SM BR OVC003 07/06 A2988 RMK AO2 SLP123 T00720061
KASG 
27nm SW 
261948Z 19005KT 7SM OVC005 08/08 A2989
KVBT 
29nm W 
261956Z AUTO 19005KT 10SM OVC006 08/07 A2989 RMK AO2 CIG 005V008 SLP127 T00780067 TSNO
KXNA 
33nm W 
262004Z 19005KT 10SM OVC006 08/06 A2987 RMK AO2 T00780056
KFYV 
34nm SW 
261953Z 20004KT 10SM OVC011 10/08 A2987 RMK AO2 SLP116 T01000078
KHFJ 
37nm NW 
262015Z AUTO 16003KT 10SM OVC009 07/05 A2987 RMK AO2
KSLG 
42nm W 
261956Z AUTO 21004KT 10SM OVC004 07/07 A2988 RMK AO2 SLP121 T00720067 TSNO
TAF
KROG 
22nm W 
261720Z 2618/2718 11007KT P6SM OVC003 TEMPO 2618/2622 BKN006 FM270100 22005KT P6SM OVC004 FM270700 VRB04KT 4SM BR BKN004 FM271000 VRB03KT 2SM BR BKN003 FM271400 VRB03KT 5SM BR BKN005 FM271500 13005KT P6SM BKN007
KBBG 
22nm NE 
261952Z 2620/2718 13006KT 4SM BR OVC006 FM270300 00000KT 6SM BR OVC008 FM270800 VRB03KT P6SM SCT050 FM271000 00000KT 2SM BR BKN015 TEMPO 2711/2714 1/2SM FG VV002 FM271500 VRB04KT 5SM BR BKN008 FM271700 15008KT P6SM SCT012
KHRO 
24nm E 
261945Z 2620/2718 14009KT 5SM BR OVC005 TEMPO 2620/2623 2SM BR OVC005 FM270000 18005KT 6SM BR OVC006 FM270600 VRB05KT P6SM BKN030 FM271200 VRB03KT P6SM BKN010 FM271400 VRB04KT P6SM BKN070
NOTAMs
Click for the latest NOTAMs
NOTAMs are issued by the DoD/FAA and will open in a separate window not controlled by AirNav.

 

 
 

FBO, Fuel Providers, and Aircraft Ground Support

  
 Business Name 
 
 Contact 
 
 Services / Description 
 
Fuel Prices
 
Comments
  
Carroll County Airport 870-423-8393
870-423-2120
[web site]
[email]

Like us on facebook
Airport management, Aviation fuel, Aircraft parking (ramp or tiedown), Hangars, Hangar leasing / sales, Passenger terminal and lounge, Flight training, ...

More info about Carroll County Airport
Shell
100LL
SS $3.72 
 Updated 18-Feb-2021
 
   3 read write
SS=Self service
Update Fuel Prices
 

Would you like to see your business listed on this page?

 If your business provides an interesting product or service to pilots, flight crews, aircraft, or users of the Carroll County Airport, you should consider listing it here.  To start the listing process, click on the button below
 
Add a business
 

Other Pages about Carroll County Airport

co.carroll.ar.us
Carroll County Airport
 
Update a link
 
Copyright © AirNav, LLC. All rights reserved. Privacy Policy  Contact